createdAt,value
2022-12-13T00:01:42.768Z,1.27
2022-12-13T00:06:48.276Z,1.29
2022-12-13T00:11:57.427Z,1.21
2022-12-13T00:17:04.288Z,1.09
2022-12-13T00:22:12.202Z,1.11
2022-12-13T00:27:16.187Z,1.20
2022-12-13T00:32:24.517Z,1.19
2022-12-13T00:37:31.244Z,1.13
2022-12-13T00:42:38.720Z,1.07
2022-12-13T00:48:09.130Z,0.98
2022-12-13T00:53:21.514Z,0.94
2022-12-13T00:58:27.343Z,0.90
2022-12-13T01:03:42.044Z,0.84
2022-12-13T01:09:12.703Z,0.88
2022-12-13T01:14:18.759Z,0.82
2022-12-13T01:19:43.077Z,0.78
2022-12-13T01:24:47.692Z,0.79
2022-12-13T01:29:52.876Z,0.82
2022-12-13T01:35:04.374Z,0.83
2022-12-13T01:40:16.180Z,0.77
2022-12-13T01:45:30.036Z,0.78
2022-12-13T01:50:42.844Z,0.73
2022-12-13T01:56:02.165Z,0.72
2022-12-13T02:07:03.051Z,0.76
2022-12-13T02:12:19.173Z,0.78
2022-12-13T02:18:26.590Z,0.78
2022-12-13T02:25:05.681Z,0.80
2022-12-13T02:31:06.290Z,0.75
2022-12-13T02:36:38.933Z,0.65
2022-12-13T02:51:17.944Z,0.43
2022-12-13T03:10:02.733Z,0.23
2022-12-13T03:15:22.365Z,0.21
2022-12-13T03:20:35.305Z,0.22
2022-12-13T03:25:39.944Z,0.22
2022-12-13T03:30:49.101Z,0.21
2022-12-13T03:35:53.642Z,0.24
2022-12-13T03:41:16.546Z,0.33
2022-12-13T03:51:46.203Z,0.31
2022-12-13T03:57:04.238Z,0.26
2022-12-13T04:02:31.052Z,0.10
2022-12-13T04:07:36.206Z,0.06
2022-12-13T04:13:00.627Z,0.19
2022-12-13T04:18:21.067Z,0.31
2022-12-13T04:24:01.028Z,0.40
2022-12-13T04:34:41.388Z,0.30
2022-12-13T04:40:39.571Z,0.21
2022-12-13T04:45:50.140Z,0.19
2022-12-13T04:51:06.888Z,0.21
2022-12-13T04:56:18.410Z,0.24
2022-12-13T05:01:36.140Z,0.14
2022-12-13T05:12:30.244Z,-0.07
2022-12-13T05:17:44.313Z,-0.14
2022-12-13T05:23:47.537Z,-0.18
2022-12-13T05:29:11.135Z,-0.19
2022-12-13T05:34:27.083Z,-0.14
2022-12-13T05:51:10.477Z,-0.14
2022-12-13T05:57:16.448Z,-0.19
2022-12-13T06:02:50.397Z,-0.35
2022-12-13T06:08:24.975Z,-0.40
2022-12-13T06:24:55.705Z,-0.52
2022-12-13T06:30:02.676Z,-0.53
2022-12-13T06:35:51.062Z,-0.49
2022-12-13T06:41:40.828Z,-0.47
2022-12-13T06:46:45.746Z,-0.49
2022-12-13T06:51:57.562Z,-0.46
2022-12-13T06:57:20.319Z,-0.44
2022-12-13T07:02:48.619Z,-0.44
2022-12-13T07:07:58.476Z,-0.47
2022-12-13T07:14:06.905Z,-0.42
2022-12-13T07:19:45.391Z,-0.36
2022-12-13T07:37:30.350Z,-0.29
2022-12-13T07:43:03.345Z,-0.30
2022-12-13T08:00:46.841Z,-0.15
2022-12-13T08:06:15.069Z,-0.15
2022-12-13T08:11:43.879Z,-0.17
2022-12-13T08:17:23.260Z,-0.26
2022-12-13T08:22:35.959Z,-0.32
2022-12-13T08:40:47.785Z,-0.34
2022-12-13T08:53:35.232Z,-0.17
2022-12-13T08:57:58.969Z,-0.13
2022-12-13T09:03:58.138Z,-0.08
2022-12-13T09:09:24.000Z,-0.05
2022-12-13T09:14:34.370Z,-0.04
2022-12-13T09:19:38.360Z,0.10
2022-12-13T09:24:50.194Z,0.13
2022-12-13T09:29:53.870Z,0.12
2022-12-13T09:34:57.453Z,0.17
2022-12-13T09:40:16.023Z,0.23
2022-12-13T09:45:32.019Z,0.28
2022-12-13T09:50:37.067Z,0.32
2022-12-13T09:55:50.267Z,0.34
2022-12-13T10:00:58.902Z,0.38
2022-12-13T10:06:24.342Z,0.31
2022-12-13T10:11:38.600Z,0.30
2022-12-13T10:16:49.671Z,0.32
2022-12-13T10:21:53.728Z,0.31
2022-12-13T10:27:18.028Z,0.34
2022-12-13T10:32:52.602Z,0.45
2022-12-13T10:37:55.509Z,0.44
2022-12-13T10:43:15.959Z,0.49
2022-12-13T10:48:31.557Z,0.51
2022-12-13T10:54:03.337Z,0.46
2022-12-13T10:59:21.484Z,0.37
2022-12-13T11:04:43.172Z,0.21
2022-12-13T11:10:05.481Z,0.17
2022-12-13T11:15:28.017Z,0.23
2022-12-13T11:21:03.079Z,0.32
2022-12-13T11:26:24.384Z,0.46
2022-12-13T11:31:59.511Z,0.57
2022-12-13T11:37:48.998Z,0.57
2022-12-13T11:43:23.099Z,0.52
2022-12-13T11:48:44.836Z,0.49
2022-12-13T11:53:57.291Z,0.49
2022-12-13T11:59:27.684Z,0.42
2022-12-13T12:04:38.829Z,0.40
2022-12-13T12:09:53.948Z,0.44
2022-12-13T12:15:15.745Z,0.51
2022-12-13T12:20:45.560Z,0.50
2022-12-13T12:26:31.822Z,0.48
2022-12-13T12:31:51.222Z,0.48
2022-12-13T12:37:13.838Z,0.51
2022-12-13T12:42:56.840Z,0.50
2022-12-13T12:53:59.645Z,0.38
2022-12-13T12:59:18.940Z,0.36
2022-12-13T13:04:36.277Z,0.31
2022-12-13T13:09:41.946Z,0.35
2022-12-13T13:14:45.935Z,0.40
2022-12-13T13:20:04.105Z,0.41
2022-12-13T13:25:26.986Z,0.40
2022-12-13T13:30:32.290Z,0.39
2022-12-13T13:35:48.317Z,0.36
2022-12-13T13:40:58.842Z,0.35
2022-12-13T13:46:02.782Z,0.35
2022-12-13T13:51:25.085Z,0.32
2022-12-13T13:56:50.186Z,0.40
2022-12-13T14:02:36.224Z,0.49
2022-12-13T14:08:20.885Z,0.47
2022-12-13T14:14:25.037Z,0.48
2022-12-13T14:20:15.116Z,0.44
2022-12-13T14:25:46.416Z,0.44
2022-12-13T14:30:57.198Z,0.39
2022-12-13T14:36:05.868Z,0.50
2022-12-13T14:41:21.327Z,0.48
2022-12-13T14:46:25.577Z,0.39
2022-12-13T14:51:38.036Z,0.36
2022-12-13T14:56:59.107Z,0.30
2022-12-13T15:02:31.085Z,0.23
2022-12-13T15:07:39.662Z,0.34
2022-12-13T15:12:52.520Z,0.34
2022-12-13T15:24:22.200Z,0.25
2022-12-13T15:29:36.003Z,0.23
2022-12-13T15:35:16.987Z,0.25
2022-12-13T15:40:21.218Z,0.22
2022-12-13T15:45:41.620Z,0.19
2022-12-13T15:50:50.538Z,0.11
2022-12-13T15:55:57.254Z,0.08
2022-12-13T16:01:08.749Z,0.04
2022-12-13T16:06:24.142Z,0.06
2022-12-13T16:11:34.139Z,-0.01
2022-12-13T16:16:38.889Z,-0.03
2022-12-13T16:21:51.570Z,-0.03
2022-12-13T16:26:55.942Z,0.00
2022-12-13T16:32:08.335Z,0.15
2022-12-13T16:37:25.379Z,0.26
2022-12-13T16:42:32.372Z,0.19
2022-12-13T16:47:41.835Z,0.09
2022-12-13T16:53:23.207Z,0.04
2022-12-13T16:58:49.924Z,-0.01
2022-12-13T17:04:35.200Z,0.00
2022-12-13T17:09:39.744Z,0.08
2022-12-13T17:14:43.737Z,-0.01
2022-12-13T17:19:47.997Z,-0.03
2022-12-13T17:24:59.604Z,-0.04
2022-12-13T17:35:39.669Z,-0.19
2022-12-13T17:40:54.499Z,-0.10
2022-12-13T17:46:14.515Z,0.20
2022-12-13T17:51:18.675Z,0.13
2022-12-13T17:56:26.243Z,0.08
2022-12-13T18:01:36.137Z,0.02
2022-12-13T18:06:44.047Z,-0.03
2022-12-13T18:11:50.898Z,-0.09
2022-12-13T18:16:59.631Z,-0.17
2022-12-13T18:22:03.877Z,-0.31
2022-12-13T18:27:08.058Z,-0.36
2022-12-13T18:32:14.249Z,-0.36
2022-12-13T18:37:34.951Z,-0.17
2022-12-13T18:42:42.203Z,-0.23
2022-12-13T18:47:46.435Z,-0.31
2022-12-13T18:52:59.806Z,-0.29
2022-12-13T18:58:04.548Z,-0.24
2022-12-13T19:03:17.330Z,-0.25
2022-12-13T19:08:26.727Z,-0.27
2022-12-13T19:13:46.151Z,-0.31
2022-12-13T19:18:53.221Z,-0.34
2022-12-13T19:24:01.303Z,-0.36
2022-12-13T19:29:16.928Z,-0.39
2022-12-13T19:34:21.613Z,-0.42
2022-12-13T19:39:28.966Z,-0.34
2022-12-13T19:44:35.029Z,-0.21
2022-12-13T19:49:39.675Z,-0.24
2022-12-13T19:54:47.690Z,-0.33
2022-12-13T19:59:51.464Z,-0.40
2022-12-13T20:04:54.671Z,-0.47
2022-12-13T20:09:57.725Z,-0.54
2022-12-13T20:15:03.342Z,-0.59
2022-12-13T20:20:06.917Z,-0.62
2022-12-13T20:25:13.299Z,-0.66
2022-12-13T20:30:19.211Z,-0.70
2022-12-13T20:35:22.287Z,-0.77
2022-12-13T20:40:26.463Z,-0.80
2022-12-13T20:45:32.569Z,-0.86
2022-12-13T20:50:35.577Z,-0.93
2022-12-13T20:55:38.591Z,-0.99
2022-12-13T21:00:41.634Z,-1.06
2022-12-13T21:05:46.667Z,-1.14
2022-12-13T21:10:49.784Z,-1.25
2022-12-13T21:15:53.133Z,-1.33
2022-12-13T21:20:57.355Z,-1.36
2022-12-13T21:26:01.398Z,-1.35
2022-12-13T21:31:08.576Z,-1.35
2022-12-13T21:42:22.566Z,-1.35
2022-12-13T21:47:33.759Z,-1.35
2022-12-13T21:52:48.047Z,-1.39
2022-12-13T21:58:19.080Z,-1.39
2022-12-13T22:03:26.044Z,-1.40
2022-12-13T22:08:30.256Z,-1.44
2022-12-13T22:13:37.207Z,-1.61
2022-12-13T22:18:43.128Z,-1.76
2022-12-13T22:25:34.143Z,-1.90
2022-12-13T22:29:59.472Z,-2.04
2022-12-13T22:35:08.323Z,-2.24
2022-12-13T22:46:14.659Z,-2.55
2022-12-13T22:51:21.088Z,-2.67
2022-12-13T22:57:02.775Z,-2.79
2022-12-13T23:02:26.635Z,-2.90
2022-12-13T23:13:29.972Z,-3.19
2022-12-13T23:19:10.697Z,-3.25
2022-12-13T23:24:46.205Z,-3.28
2022-12-13T23:43:20.855Z,-3.60
2022-12-13T23:50:53.549Z,-3.68
2022-12-13T23:56:30.758Z,-3.80
